Time;durP1;ratioP1;P1;durP2;ratioP2;P2;SDS_P1;SDS_P2;PMS_P1;PMS_P2;Temp;Humidity;BMP_temperature;BMP_pressure;BME280_temperature;BME280_humidity;BME280_pressure;Samples;Min_cycle;Max_cycle;Signal;HPM_P1;HPM_P2
2021/01/30 00:00:30;;;;;;;0.93;0.25;;;5.90;99.90;;;;;;5046381;28;20059;-79
2021/01/30 00:02:56;;;;;;;2.90;0.70;;;5.90;99.90;;;;;;5045181;28;20029;-79
2021/01/30 00:05:21;;;;;;;1.67;0.50;;;5.90;99.90;;;;;;5029912;28;20053;-79
2021/01/30 00:07:47;;;;;;;0.73;0.32;;;5.90;99.90;;;;;;5049174;28;20021;-78
2021/01/30 00:10:14;;;;;;;1.05;0.32;;;5.90;99.90;;;;;;5050630;28;20052;-78
2021/01/30 00:12:41;;;;;;;0.38;0.35;;;5.90;99.90;;;;;;5050433;28;20436;-77
2021/01/30 00:15:07;;;;;;;0.68;0.35;;;5.80;99.90;;;;;;5045291;28;20036;-79
2021/01/30 00:17:33;;;;;;;0.75;0.40;;;5.80;99.90;;;;;;5043293;28;20028;-80
2021/01/30 00:19:59;;;;;;;2.83;0.50;;;5.80;99.90;;;;;;5033246;28;20492;-81
2021/01/30 00:22:25;;;;;;;0.55;0.55;;;5.90;99.90;;;;;;5017668;28;20025;-81
2021/01/30 00:24:51;;;;;;;0.50;0.25;;;5.90;99.90;;;;;;5031822;28;20037;-81
2021/01/30 00:27:21;;;;;;;1.10;0.50;;;5.90;99.90;;;;;;5050824;28;20027;-80
2021/01/30 00:29:48;;;;;;;0.70;0.47;;;5.90;99.90;;;;;;5046378;28;20140;-83
2021/01/30 00:32:15;;;;;;;0.20;0.20;;;6.00;99.90;;;;;;5052771;28;20045;-81
2021/01/30 00:34:41;;;;;;;1.95;0.70;;;5.90;99.90;;;;;;5065770;28;20094;-79
2021/01/30 00:37:14;;;;;;;1.23;0.50;;;5.90;99.90;;;;;;5064496;28;20528;-80
2021/01/30 00:39:40;;;;;;;2.17;0.65;;;6.00;99.90;;;;;;5042327;28;20021;-81
2021/01/30 00:42:07;;;;;;;2.60;0.50;;;6.00;99.90;;;;;;5050854;28;20095;-80
2021/01/30 00:44:34;;;;;;;0.98;0.43;;;6.00;99.90;;;;;;5043529;28;20052;-82
2021/01/30 00:47:00;;;;;;;1.08;0.40;;;6.00;99.90;;;;;;5046262;28;20047;-82
2021/01/30 00:49:27;;;;;;;0.25;0.25;;;6.00;99.90;;;;;;5028221;28;20038;-81
2021/01/30 00:51:53;;;;;;;0.65;0.30;;;6.00;99.90;;;;;;5046013;28;20079;-80
2021/01/30 00:54:20;;;;;;;1.25;0.50;;;6.00;99.90;;;;;;5049655;28;20398;-79
2021/01/30 00:56:50;;;;;;;0.73;0.38;;;6.00;99.90;;;;;;5049532;28;20473;-82
2021/01/30 00:59:16;;;;;;;0.38;0.28;;;6.00;99.90;;;;;;5045725;28;20139;-79
2021/01/30 01:01:42;;;;;;;0.95;0.30;;;5.90;99.90;;;;;;5042138;28;20116;-82
2021/01/30 01:04:08;;;;;;;0.73;0.47;;;6.00;99.90;;;;;;5016295;28;20029;-81
2021/01/30 01:06:35;;;;;;;2.58;0.60;;;5.90;99.90;;;;;;5036830;28;20076;-81
2021/01/30 01:09:04;;;;;;;0.47;0.30;;;5.90;99.90;;;;;;5056707;28;20170;-80
2021/01/30 01:11:29;;;;;;;0.52;0.30;;;5.90;99.90;;;;;;5068744;28;20088;-80
2021/01/30 01:13:55;;;;;;;0.85;0.43;;;6.00;99.90;;;;;;5066170;28;20426;-82
2021/01/30 01:16:20;;;;;;;0.63;0.47;;;5.90;99.90;;;;;;5045466;28;20093;-82
2021/01/30 01:18:47;;;;;;;1.25;0.60;;;5.90;99.90;;;;;;5047009;28;20025;-80
2021/01/30 01:21:13;;;;;;;2.50;0.52;;;5.80;99.90;;;;;;5041905;28;20021;-81
2021/01/30 01:23:43;;;;;;;0.63;0.52;;;5.90;99.90;;;;;;5031054;28;20060;-81
2021/01/30 01:26:09;;;;;;;;;;;5.90;99.90;;;;;;5049040;28;20036;-81
2021/01/30 01:28:35;;;;;;;1.60;0.30;;;5.90;99.90;;;;;;5048153;28;19908;-81
2021/01/30 01:31:01;;;;;;;0.82;0.57;;;5.90;99.90;;;;;;5037594;28;20943;-80
2021/01/30 01:33:26;;;;;;;0.57;0.40;;;5.90;99.90;;;;;;5037488;28;20052;-81
2021/01/30 01:35:52;;;;;;;1.00;0.55;;;6.00;99.90;;;;;;5035905;28;20029;-81
2021/01/30 01:38:17;;;;;;;1.75;0.82;;;6.10;99.90;;;;;;5041967;28;20060;-80
2021/01/30 01:40:43;;;;;;;0.82;0.35;;;6.10;99.90;;;;;;5049733;28;20464;-80
2021/01/30 01:43:19;;;;;;;0.30;0.30;;;6.10;99.90;;;;;;5054369;28;20369;-83
2021/01/30 01:46:10;;;;;;;0.65;0.30;;;6.10;99.90;;;;;;5051102;28;20024;-79
2021/01/30 01:48:41;;;;;;;1.95;0.50;;;6.10;99.90;;;;;;5044825;28;20532;-79
2021/01/30 01:51:12;;;;;;;2.22;0.45;;;6.20;99.90;;;;;;5048674;28;20053;-81
2021/01/30 01:53:41;;;;;;;0.50;0.43;;;6.10;99.90;;;;;;5033520;28;20028;-81
2021/01/30 01:56:14;;;;;;;1.45;0.57;;;6.20;99.90;;;;;;5045094;28;20028;-80
2021/01/30 01:58:43;;;;;;;0.30;0.20;;;6.20;99.90;;;;;;5044715;28;20026;-82
2021/01/30 02:01:08;;;;;;;0.47;0.23;;;6.20;99.90;;;;;;5034879;28;20017;-80
2021/01/30 02:03:35;;;;;;;0.60;0.40;;;6.20;99.90;;;;;;5037480;28;20308;-82
2021/01/30 02:06:03;;;;;;;0.55;0.40;;;6.20;99.90;;;;;;5053256;28;20029;-81
2021/01/30 02:08:33;;;;;;;1.38;0.43;;;6.10;99.90;;;;;;5022322;28;20139;-80
2021/01/30 02:10:58;;;;;;;2.78;0.38;;;6.10;99.90;;;;;;5040250;28;20090;-83
2021/01/30 02:13:27;;;;;;;2.55;0.40;;;6.10;99.90;;;;;;5046401;28;20477;-80
2021/01/30 02:16:05;;;;;;;0.70;0.40;;;6.10;99.90;;;;;;5049146;28;20385;-80
2021/01/30 02:19:08;;;;;;;0.85;0.40;;;6.00;99.90;;;;;;5046750;28;20068;-80
2021/01/30 02:22:15;;;;;;;0.82;0.40;;;6.00;99.90;;;;;;5050633;28;20049;-78
2021/01/30 02:24:59;;;;;;;0.47;0.35;;;6.00;99.90;;;;;;5051196;28;20448;-80
2021/01/30 02:27:48;;;;;;;0.30;0.30;;;6.00;99.90;;;;;;5046914;28;20423;-81
2021/01/30 02:30:29;;;;;;;0.22;0.22;;;6.00;99.90;;;;;;5045706;28;20029;-81
2021/01/30 02:33:16;;;;;;;0.75;0.25;;;5.90;99.90;;;;;;5043074;28;20033;-81
2021/01/30 02:36:21;;;;;;;1.33;0.20;;;5.90;99.90;;;;;;5020614;28;20028;-81
2021/01/30 02:38:55;;;;;;;0.98;0.20;;;6.00;99.90;;;;;;5013862;28;20055;-80
2021/01/30 02:41:26;;;;;;;0.25;0.25;;;6.00;99.90;;;;;;5033050;28;20072;-81
2021/01/30 02:43:56;;;;;;;0.38;0.20;;;6.10;99.90;;;;;;5057960;28;20045;-80
2021/01/30 02:46:26;;;;;;;1.17;0.32;;;6.00;99.90;;;;;;5066488;28;20044;-80
2021/01/30 02:48:57;;;;;;;0.77;0.20;;;6.00;99.90;;;;;;5060677;28;20080;-80
2021/01/30 02:51:29;;;;;;;0.35;0.30;;;6.00;99.90;;;;;;5057417;28;20562;-81
2021/01/30 02:54:01;;;;;;;0.60;0.40;;;6.10;99.90;;;;;;5048385;28;20175;-81
2021/01/30 02:56:26;;;;;;;0.68;0.30;;;6.00;99.90;;;;;;5052809;28;20107;-83
2021/01/30 02:59:01;;;;;;;0.17;0.17;;;5.90;99.90;;;;;;5049311;28;20664;-83
2021/01/30 03:01:28;;;;;;;0.50;0.30;;;6.00;99.90;;;;;;5046930;28;20044;-81
2021/01/30 03:03:59;;;;;;;0.70;0.38;;;5.90;99.90;;;;;;5042463;28;20034;-82
2021/01/30 03:06:48;;;;;;;0.20;0.20;;;5.90;99.90;;;;;;5026229;28;20037;-80
2021/01/30 03:09:35;;;;;;;1.00;0.32;;;5.90;99.90;;;;;;5043897;28;20372;-80
2021/01/30 03:12:05;;;;;;;0.85;0.32;;;5.90;99.90;;;;;;5049827;28;20609;-82
2021/01/30 03:14:35;;;;;;;0.75;0.68;;;5.80;99.90;;;;;;5031997;28;20094;-83
2021/01/30 03:17:02;;;;;;;0.50;0.28;;;5.80;99.90;;;;;;5050613;28;20028;-81
2021/01/30 03:19:31;;;;;;;0.75;0.28;;;5.80;99.90;;;;;;5043698;28;20017;-82
2021/01/30 03:22:00;;;;;;;0.30;0.30;;;5.80;99.90;;;;;;5049505;28;20045;-81
2021/01/30 03:24:28;;;;;;;1.17;0.22;;;5.80;99.90;;;;;;5045086;28;20093;-80
2021/01/30 03:26:54;;;;;;;3.03;0.68;;;5.80;99.90;;;;;;5047099;28;20028;-82
2021/01/30 03:29:20;;;;;;;2.38;0.60;;;5.80;99.90;;;;;;5044990;28;20025;-81
2021/01/30 03:31:47;;;;;;;1.88;0.50;;;5.70;99.90;;;;;;5044546;28;20389;-80
2021/01/30 03:34:14;;;;;;;1.08;0.60;;;5.80;99.90;;;;;;5050305;28;20041;-80
2021/01/30 03:36:40;;;;;;;1.15;0.45;;;5.80;99.90;;;;;;5041445;28;20047;-81
2021/01/30 03:39:14;;;;;;;3.00;0.30;;;5.80;99.90;;;;;;5028162;28;20254;-83
2021/01/30 03:41:41;;;;;;;1.52;1.13;;;5.80;99.90;;;;;;5038895;28;20468;-80
2021/01/30 03:44:07;;;;;;;0.28;0.28;;;5.80;99.90;;;;;;5045645;28;20112;-81
2021/01/30 03:46:32;;;;;;;0.65;0.60;;;5.80;99.90;;;;;;5028653;28;20608;-79
2021/01/30 03:48:58;;;;;;;0.50;0.40;;;5.80;99.90;;;;;;5038310;28;20037;-80
2021/01/30 03:51:23;;;;;;;0.82;0.50;;;5.80;99.90;;;;;;5038433;28;20059;-82
2021/01/30 03:53:50;;;;;;;1.30;0.57;;;5.90;99.90;;;;;;5050619;28;20076;-81
2021/01/30 03:56:16;;;;;;;1.38;0.73;;;5.90;99.90;;;;;;5043671;28;20112;-81
2021/01/30 03:58:45;;;;;;;0.20;0.20;;;5.90;99.90;;;;;;5053812;28;20079;-82
2021/01/30 04:01:11;;;;;;;2.47;0.83;;;5.80;99.90;;;;;;5037556;28;20051;-81
2021/01/30 04:03:36;;;;;;;0.77;0.40;;;5.80;99.90;;;;;;5045708;28;20071;-81
2021/01/30 04:06:03;;;;;;;0.68;0.32;;;5.80;99.90;;;;;;5047937;28;20490;-82
2021/01/30 04:08:30;;;;;;;1.52;0.50;;;5.80;99.90;;;;;;5049477;28;20392;-82
2021/01/30 04:10:56;;;;;;;0.98;0.30;;;5.90;99.90;;;;;;5050418;28;20048;-82
2021/01/30 04:13:21;;;;;;;2.03;0.45;;;5.90;99.90;;;;;;5036711;28;20025;-80
2021/01/30 04:15:47;;;;;;;1.80;0.32;;;5.90;99.90;;;;;;5031519;28;20108;-82
2021/01/30 04:18:14;;;;;;;3.08;0.40;;;5.90;99.90;;;;;;5043312;28;20476;-80
2021/01/30 04:20:40;;;;;;;2.63;0.57;;;5.90;99.90;;;;;;5040430;28;20531;-80
2021/01/30 04:23:07;;;;;;;0.95;0.50;;;5.90;99.90;;;;;;5047275;28;20028;-84
2021/01/30 04:25:33;;;;;;;1.90;0.50;;;6.00;99.90;;;;;;5027575;28;20045;-82
2021/01/30 04:27:59;;;;;;;1.70;0.45;;;6.00;99.90;;;;;;5045131;28;20052;-82
2021/01/30 04:30:27;;;;;;;0.93;0.38;;;6.00;99.90;;;;;;5028122;28;20115;-79
2021/01/30 04:32:53;;;;;;;1.13;0.43;;;6.00;99.90;;;;;;5030901;28;20029;-80
2021/01/30 04:35:22;;;;;;;1.60;0.73;;;6.00;99.90;;;;;;5039818;28;20029;-80
2021/01/30 04:37:47;;;;;;;2.72;0.50;;;5.90;99.90;;;;;;5045667;28;20122;-80
2021/01/30 04:40:39;;;;;;;3.95;1.00;;;5.90;99.90;;;;;;5049654;28;20079;-82
2021/01/30 04:43:17;;;;;;;2.22;0.40;;;5.90;99.90;;;;;;5039712;28;20074;-82
2021/01/30 04:45:51;;;;;;;2.78;0.50;;;6.00;99.90;;;;;;5049092;28;20040;-80
2021/01/30 04:48:56;;;;;;;2.45;0.50;;;6.00;99.90;;;;;;5034342;28;20036;-81
2021/01/30 04:51:51;;;;;;;5.50;0.90;;;5.90;99.90;;;;;;4964789;28;20039;-82
2021/01/30 04:54:42;;;;;;;5.32;0.82;;;5.90;99.90;;;;;;4967729;28;20027;-83
2021/01/30 04:57:31;;;;;;;3.40;0.77;;;5.90;99.90;;;;;;4965508;28;20499;-79
2021/01/30 05:00:36;;;;;;;5.05;0.60;;;5.90;99.90;;;;;;4967695;28;20035;-82
2021/01/30 05:03:04;;;;;;;4.82;0.52;;;5.90;99.90;;;;;;4948683;28;20096;-82
2021/01/30 05:05:30;;;;;;;4.38;0.65;;;5.90;99.90;;;;;;4935610;29;20035;-80
2021/01/30 05:08:14;;;;;;;1.05;0.32;;;5.90;99.90;;;;;;4939248;29;20487;-82
2021/01/30 05:11:00;;;;;;;1.58;0.68;;;5.90;99.90;;;;;;4930892;29;20070;-80
2021/01/30 05:13:37;;;;;;;1.63;0.40;;;5.90;99.90;;;;;;4921709;29;20031;-82
2021/01/30 05:16:12;;;;;;;3.15;0.60;;;5.90;99.90;;;;;;4938463;29;20058;-82
2021/01/30 05:18:45;;;;;;;3.67;0.50;;;5.90;99.90;;;;;;4933635;29;20146;-82
2021/01/30 05:21:15;;;;;;;3.95;1.13;;;5.90;99.90;;;;;;4933669;29;20048;-82
2021/01/30 05:23:44;;;;;;;2.05;0.50;;;5.90;99.90;;;;;;4929974;29;20045;-81
2021/01/30 05:26:38;;;;;;;4.00;0.50;;;5.90;99.90;;;;;;4928534;29;20067;-81
2021/01/30 05:29:14;;;;;;;3.75;0.77;;;5.80;99.90;;;;;;4958559;28;20114;-80
2021/01/30 05:32:09;;;;;;;1.98;0.52;;;5.90;99.90;;;;;;4988273;28;20069;-81
2021/01/30 05:34:47;;;;;;;2.28;0.77;;;5.80;99.90;;;;;;4983712;28;20081;-80
2021/01/30 05:37:17;;;;;;;3.60;0.82;;;5.80;99.90;;;;;;4988306;28;20023;-80
2021/01/30 05:39:48;;;;;;;5.50;0.85;;;5.70;99.90;;;;;;5050436;28;20501;-81
2021/01/30 05:42:26;;;;;;;5.03;1.13;;;5.70;99.90;;;;;;5040966;28;20025;-81
2021/01/30 05:44:57;;;;;;;3.30;1.05;;;5.70;99.90;;;;;;5051130;28;20507;-82
2021/01/30 05:47:29;;;;;;;5.43;1.08;;;5.70;99.90;;;;;;5031021;28;20033;-80
2021/01/30 05:50:02;;;;;;;2.80;0.80;;;5.70;99.90;;;;;;5051480;28;20025;-80
2021/01/30 05:52:36;;;;;;;5.90;0.93;;;5.70;99.90;;;;;;5048336;28;20064;-80
2021/01/30 05:55:03;;;;;;;4.85;0.85;;;5.70;99.90;;;;;;5047949;28;20036;-82
2021/01/30 05:57:29;;;;;;;1.60;0.73;;;5.70;99.90;;;;;;5035516;28;20551;-80
2021/01/30 05:59:57;;;;;;;2.38;0.50;;;5.70;99.90;;;;;;5050549;28;20092;-83
2021/01/30 06:02:29;;;;;;;1.70;0.73;;;5.70;99.90;;;;;;5050662;28;20025;-83
2021/01/30 06:04:55;;;;;;;2.70;1.15;;;5.70;99.90;;;;;;5034542;28;20036;-83
2021/01/30 06:07:30;;;;;;;2.58;0.73;;;5.60;99.90;;;;;;5063039;28;20022;-84
2021/01/30 06:09:56;;;;;;;6.10;1.42;;;5.50;99.90;;;;;;5046280;28;20181;-82
2021/01/30 06:12:30;;;;;;;2.13;0.57;;;5.50;99.90;;;;;;5042422;28;20062;-82
2021/01/30 06:15:09;;;;;;;2.35;0.93;;;5.40;99.90;;;;;;5027738;28;20378;-81
2021/01/30 06:17:35;;;;;;;1.55;0.68;;;5.40;99.90;;;;;;5043223;28;20025;-82
2021/01/30 06:20:18;;;;;;;3.70;1.00;;;5.40;99.90;;;;;;5026121;28;20044;-82
2021/01/30 06:22:45;;;;;;;5.25;0.90;;;5.50;99.90;;;;;;5049291;28;20468;-81
2021/01/30 06:25:44;;;;;;;4.18;0.90;;;5.40;99.90;;;;;;5037885;28;20093;-81
2021/01/30 06:28:18;;;;;;;4.57;1.10;;;5.50;99.90;;;;;;4972332;28;20137;-81
2021/01/30 06:30:46;;;;;;;1.55;0.77;;;5.50;99.90;;;;;;4968770;28;20043;-82
2021/01/30 06:33:33;;;;;;;4.15;0.93;;;5.50;99.90;;;;;;4956200;28;20043;-83
2021/01/30 06:36:12;;;;;;;2.67;1.00;;;5.60;99.90;;;;;;4973192;28;20050;-81
2021/01/30 06:38:41;;;;;;;2.45;0.70;;;5.60;99.90;;;;;;4970230;28;20035;-81
2021/01/30 06:41:15;;;;;;;;;;;5.60;99.90;;;;;;4979244;28;20106;-81
2021/01/30 06:43:46;;;;;;;1.92;0.47;;;5.60;99.90;;;;;;4982660;28;20443;-82
2021/01/30 06:46:19;;;;;;;2.95;1.00;;;5.70;99.90;;;;;;4973660;28;20039;-82
2021/01/30 06:48:51;;;;;;;1.15;0.52;;;5.80;99.90;;;;;;4990297;28;20103;-81
2021/01/30 06:51:32;;;;;;;3.10;0.60;;;5.80;99.90;;;;;;4989750;28;20054;-82
2021/01/30 06:54:19;;;;;;;3.42;0.93;;;5.80;99.90;;;;;;4966948;28;20449;-80
2021/01/30 06:57:00;;;;;;;3.88;0.60;;;5.80;99.90;;;;;;4988524;28;20038;-81
2021/01/30 06:59:30;;;;;;;6.60;0.73;;;5.90;99.90;;;;;;4973039;28;20614;-81
2021/01/30 07:01:58;;;;;;;1.52;0.60;;;5.90;99.90;;;;;;4968986;28;20142;-81
2021/01/30 07:04:58;;;;;;;4.80;0.90;;;5.90;99.90;;;;;;5015145;28;20099;-81
2021/01/30 07:07:32;;;;;;;3.30;0.57;;;5.80;99.90;;;;;;5032761;28;20697;-81
2021/01/30 07:10:06;;;;;;;3.88;0.90;;;6.00;99.90;;;;;;5039403;28;20528;-81
2021/01/30 07:13:04;;;;;;;3.25;1.15;;;6.00;99.90;;;;;;5038496;28;20031;-80
2021/01/30 07:15:33;;;;;;;3.83;0.90;;;6.00;99.90;;;;;;5046304;28;20048;-80
2021/01/30 07:18:25;;;;;;;4.57;0.90;;;6.10;99.90;;;;;;5038398;28;20052;-80
2021/01/30 07:20:53;;;;;;;6.88;1.20;;;6.10;99.90;;;;;;5059298;28;20025;-80
2021/01/30 07:23:18;;;;;;;4.55;0.88;;;6.10;99.90;;;;;;5042886;28;20021;-81
2021/01/30 07:26:26;;;;;;;6.40;1.10;;;6.10;99.90;;;;;;5036329;28;20060;-82
2021/01/30 07:28:58;;;;;;;2.42;0.90;;;6.10;99.90;;;;;;4961191;28;20051;-81
2021/01/30 07:31:29;;;;;;;5.30;0.93;;;6.10;99.90;;;;;;4963326;28;20049;-82
2021/01/30 07:34:02;;;;;;;4.40;0.75;;;6.10;99.90;;;;;;4955397;28;20059;-80
2021/01/30 07:36:40;;;;;;;4.40;0.93;;;6.20;99.90;;;;;;4965309;28;20126;-81
2021/01/30 07:39:17;;;;;;;8.05;1.10;;;6.10;99.90;;;;;;4951187;28;20592;-79
2021/01/30 07:41:49;;;;;;;4.57;1.17;;;6.10;99.90;;;;;;4963139;28;20027;-80
2021/01/30 07:44:30;;;;;;;4.75;0.80;;;6.20;99.90;;;;;;4974364;28;20486;-78
2021/01/30 07:47:30;;;;;;;6.88;1.20;;;6.10;99.90;;;;;;4959210;28;20101;-81
2021/01/30 07:50:04;;;;;;;2.75;0.60;;;6.10;99.90;;;;;;4962979;28;20045;-81
2021/01/30 07:52:41;;;;;;;8.57;1.55;;;6.10;99.90;;;;;;4969027;28;20043;-80
2021/01/30 07:55:10;;;;;;;8.10;1.10;;;6.10;99.90;;;;;;4951180;28;20150;-82
2021/01/30 07:58:18;;;;;;;8.70;1.48;;;6.10;99.90;;;;;;4964419;28;20423;-82
2021/01/30 08:01:03;;;;;;;6.07;1.00;;;6.10;99.90;;;;;;4957669;28;20031;-84
2021/01/30 08:03:39;;;;;;;8.48;1.05;;;6.10;99.90;;;;;;4966741;28;20086;-83
2021/01/30 08:06:10;;;;;;;1.95;0.82;;;6.10;99.90;;;;;;5008586;28;20045;-82
2021/01/30 08:08:41;;;;;;;3.05;0.88;;;6.10;99.90;;;;;;5040834;28;20384;-82
2021/01/30 08:11:12;;;;;;;5.85;1.50;;;6.10;99.90;;;;;;5030142;28;20032;-82
2021/01/30 08:14:02;;;;;;;5.72;1.15;;;6.10;99.90;;;;;;5023832;28;20580;-82
2021/01/30 08:16:46;;;;;;;;;;;6.10;99.90;;;;;;5028009;28;20033;-81
2021/01/30 08:19:39;;;;;;;6.75;1.25;;;6.10;99.90;;;;;;5035403;28;19916;-83
2021/01/30 08:22:14;;;;;;;4.50;1.30;;;6.10;99.90;;;;;;5017243;28;20021;-82
2021/01/30 08:24:46;;;;;;;5.80;1.38;;;6.10;99.90;;;;;;5038841;28;20018;-83
2021/01/30 08:27:26;;;;;;;6.65;1.60;;;6.20;99.90;;;;;;5046978;28;20117;-81
2021/01/30 08:30:00;;;;;;;6.80;1.23;;;6.20;99.90;;;;;;5041609;28;20017;-83
2021/01/30 08:32:26;;;;;;;7.47;1.20;;;6.10;99.90;;;;;;5036020;28;20083;-83
2021/01/30 08:34:58;;;;;;;3.13;1.05;;;6.10;99.90;;;;;;5027409;28;20454;-82
2021/01/30 08:37:26;;;;;;;3.30;1.00;;;6.20;99.90;;;;;;5047963;28;20041;-82
2021/01/30 08:40:04;;;;;;;4.60;0.77;;;6.20;99.90;;;;;;5019169;28;20022;-82
2021/01/30 08:42:32;;;;;;;6.15;1.25;;;6.20;99.90;;;;;;5015719;28;20060;-83
2021/01/30 08:45:00;;;;;;;6.35;1.48;;;6.20;99.90;;;;;;5048715;28;20032;-82
2021/01/30 08:47:32;;;;;;;5.47;1.48;;;6.30;99.90;;;;;;5030664;28;20254;-83
2021/01/30 08:50:02;;;;;;;8.07;1.55;;;6.30;99.90;;;;;;5027903;28;20043;-78
2021/01/30 08:52:41;;;;;;;7.50;1.25;;;6.30;99.90;;;;;;5049426;28;20071;-77
2021/01/30 08:55:46;;;;;;;7.10;1.52;;;6.30;99.90;;;;;;5023625;28;20925;-77
2021/01/30 08:58:48;;;;;;;6.80;1.02;;;6.40;99.90;;;;;;5052556;28;20103;-79
2021/01/30 09:01:20;;;;;;;1.95;0.82;;;6.50;99.90;;;;;;4951932;28;20081;-76
2021/01/30 09:03:59;;;;;;;4.25;1.15;;;6.50;99.90;;;;;;4953869;28;20070;-75
2021/01/30 09:06:39;;;;;;;2.38;0.70;;;6.50;99.90;;;;;;4947283;28;20118;-75
2021/01/30 09:09:12;;;;;;;5.85;1.20;;;6.50;99.90;;;;;;4953762;29;20142;-76
2021/01/30 09:11:44;;;;;;;4.55;1.10;;;6.60;99.90;;;;;;4953891;29;20138;-77
2021/01/30 09:14:18;;;;;;;3.53;0.82;;;6.60;99.90;;;;;;4954802;29;20513;-77
2021/01/30 09:17:01;;;;;;;4.88;1.20;;;6.60;99.90;;;;;;4946365;28;20052;-77
2021/01/30 09:19:33;;;;;;;5.72;2.08;;;6.60;99.90;;;;;;4953665;28;20380;-77
2021/01/30 09:22:10;;;;;;;5.07;1.17;;;6.60;99.90;;;;;;4955064;29;20070;-78
2021/01/30 09:24:48;;;;;;;3.55;0.80;;;6.70;99.90;;;;;;4954669;28;20640;-78
2021/01/30 09:27:44;;;;;;;4.68;1.23;;;6.70;99.90;;;;;;4954090;29;20035;-77
2021/01/30 09:30:35;;;;;;;11.27;1.65;;;6.80;99.90;;;;;;4963161;28;20042;-78
2021/01/30 09:33:11;;;;;;;5.38;1.20;;;6.80;99.90;;;;;;4949216;28;20626;-78
2021/01/30 09:35:39;;;;;;;10.27;2.53;;;6.90;99.90;;;;;;5008999;28;20041;-75
2021/01/30 09:38:27;;;;;;;6.28;1.20;;;6.90;99.90;;;;;;5047392;28;20064;-76
2021/01/30 09:41:13;;;;;;;8.20;1.52;;;6.90;99.90;;;;;;5050692;28;20099;-79
2021/01/30 09:43:39;;;;;;;6.00;1.05;;;7.00;99.90;;;;;;5047134;28;20107;-78
2021/01/30 09:46:11;;;;;;;2.78;0.98;;;7.00;99.90;;;;;;5046586;28;20065;-77
2021/01/30 09:48:38;;;;;;;6.47;1.20;;;7.00;99.90;;;;;;5050276;28;20123;-78
2021/01/30 09:51:07;;;;;;;8.15;1.08;;;7.00;99.90;;;;;;5055196;28;20029;-78
2021/01/30 09:53:42;;;;;;;8.07;1.40;;;7.10;99.90;;;;;;5055074;28;20511;-79
2021/01/30 09:56:14;;;;;;;4.68;1.02;;;7.10;99.90;;;;;;5053712;28;20267;-76
2021/01/30 09:58:43;;;;;;;6.18;1.10;;;7.20;99.90;;;;;;5050035;28;20029;-77
2021/01/30 10:01:36;;;;;;;5.97;1.20;;;7.20;99.90;;;;;;5049718;28;20083;-78
2021/01/30 10:04:15;;;;;;;1.67;0.70;;;7.20;99.90;;;;;;5044411;28;20068;-77
2021/01/30 10:06:42;;;;;;;7.93;1.08;;;7.30;99.90;;;;;;5044818;28;20061;-78
2021/01/30 10:09:14;;;;;;;5.82;1.75;;;7.50;99.90;;;;;;5052039;28;20025;-77
2021/01/30 10:11:42;;;;;;;5.70;1.05;;;7.60;99.90;;;;;;5050841;28;20053;-79
2021/01/30 10:14:09;;;;;;;5.53;1.15;;;7.70;99.90;;;;;;5054006;28;20025;-78
2021/01/30 10:16:35;;;;;;;4.22;1.38;;;7.80;99.90;;;;;;5044588;28;20056;-79
2021/01/30 10:19:09;;;;;;;6.53;0.95;;;8.00;99.90;;;;;;5051242;28;20048;-79
2021/01/30 10:21:38;;;;;;;6.10;1.13;;;8.00;99.90;;;;;;5049753;28;20049;-76
2021/01/30 10:24:25;;;;;;;3.27;0.97;;;8.10;99.90;;;;;;5050451;28;20025;-78
2021/01/30 10:26:53;;;;;;;3.70;1.00;;;8.00;99.90;;;;;;5050872;28;20053;-77
2021/01/30 10:29:22;;;;;;;5.85;1.20;;;8.00;99.90;;;;;;5051066;28;20534;-80
2021/01/30 10:31:50;;;;;;;5.65;1.10;;;8.10;99.90;;;;;;5049801;28;20032;-77
2021/01/30 10:34:36;;;;;;;7.35;1.30;;;8.30;99.90;;;;;;5050652;28;20025;-77
2021/01/30 10:37:18;;;;;;;4.85;1.23;;;8.40;99.90;;;;;;5053034;28;20044;-77
2021/01/30 10:40:03;;;;;;;5.22;1.80;;;8.50;99.90;;;;;;5035816;28;20025;-78
2021/01/30 10:42:33;;;;;;;4.32;1.20;;;8.40;99.90;;;;;;5047714;28;20131;-78
2021/01/30 10:45:19;;;;;;;4.97;1.33;;;8.20;99.90;;;;;;5050717;28;20435;-81
2021/01/30 10:48:00;;;;;;;6.13;1.20;;;8.20;99.90;;;;;;5051328;28;20021;-80
2021/01/30 10:50:43;;;;;;;5.88;1.17;;;8.30;99.90;;;;;;5045868;28;20060;-79
2021/01/30 10:53:29;;;;;;;3.83;0.82;;;8.40;99.90;;;;;;5043541;28;20104;-80
2021/01/30 10:55:55;;;;;;;5.90;1.10;;;8.50;99.90;;;;;;5033398;28;20048;-78
2021/01/30 10:58:24;;;;;;;3.63;0.88;;;8.50;99.90;;;;;;5051350;28;20037;-80
2021/01/30 11:01:05;;;;;;;6.30;1.17;;;8.50;99.90;;;;;;5051024;28;20498;-80
2021/01/30 11:03:45;;;;;;;5.15;0.98;;;8.50;99.90;;;;;;5021505;28;20415;-80
2021/01/30 11:06:36;;;;;;;7.05;1.70;;;8.40;99.90;;;;;;5040106;28;20053;-79
2021/01/30 11:09:23;;;;;;;10.10;1.40;;;8.50;99.90;;;;;;5035498;28;20029;-80
2021/01/30 11:12:16;;;;;;;7.97;1.13;;;8.70;99.90;;;;;;5037418;28;20037;-79
2021/01/30 11:14:42;;;;;;;5.15;1.17;;;8.60;99.90;;;;;;5044270;28;20112;-80
2021/01/30 11:17:27;;;;;;;5.18;1.15;;;8.60;99.90;;;;;;5040876;28;20072;-78
2021/01/30 11:19:54;;;;;;;5.32;1.38;;;8.40;99.90;;;;;;5038887;28;20033;-77
2021/01/30 11:22:25;;;;;;;3.15;0.98;;;8.30;99.90;;;;;;5047019;28;20037;-76
2021/01/30 11:25:08;;;;;;;10.15;1.33;;;8.30;99.90;;;;;;5040057;28;20053;-77
2021/01/30 11:27:34;;;;;;;5.45;1.25;;;8.30;99.90;;;;;;5039894;28;20401;-76
2021/01/30 11:30:22;;;;;;;9.30;1.20;;;8.20;99.90;;;;;;5042839;28;20036;-85
2021/01/30 11:32:51;;;;;;;7.05;1.10;;;8.30;99.90;;;;;;5053688;28;20033;-76
2021/01/30 11:35:33;;;;;;;6.30;1.00;;;8.40;99.90;;;;;;5035426;28;20383;-77
2021/01/30 11:38:06;;;;;;;2.95;1.00;;;8.40;99.90;;;;;;5058151;28;20025;-76
2021/01/30 11:40:32;;;;;;;7.40;1.20;;;8.40;99.90;;;;;;5044116;28;20040;-76
2021/01/30 11:42:57;;;;;;;8.85;1.25;;;8.40;99.90;;;;;;5044507;28;20029;-77
2021/01/30 11:45:23;;;;;;;9.07;1.55;;;8.50;99.90;;;;;;5040941;28;20087;-77
2021/01/30 11:47:49;;;;;;;3.65;1.00;;;8.60;99.90;;;;;;5044612;28;20467;-77
2021/01/30 11:50:14;;;;;;;7.05;1.23;;;8.60;99.90;;;;;;5046072;28;20071;-79
2021/01/30 11:52:40;;;;;;;6.68;1.10;;;8.60;99.90;;;;;;5037013;28;20025;-77
2021/01/30 11:55:06;;;;;;;8.15;1.17;;;8.60;99.90;;;;;;5044167;28;20034;-77
2021/01/30 11:57:32;;;;;;;4.30;1.05;;;8.60;99.90;;;;;;5042076;28;20021;-78
2021/01/30 11:59:58;;;;;;;6.13;1.20;;;8.50;99.90;;;;;;5043940;28;20051;-79
2021/01/30 12:02:34;;;;;;;8.45;1.08;;;8.60;99.90;;;;;;5042990;28;20124;-77
2021/01/30 12:05:00;;;;;;;5.00;1.27;;;8.60;99.90;;;;;;5044586;28;20457;-78
2021/01/30 12:07:26;;;;;;;7.70;0.90;;;8.50;99.90;;;;;;5044591;28;20033;-78
2021/01/30 12:09:52;;;;;;;5.90;1.20;;;8.50;99.90;;;;;;5048306;28;20033;-77
2021/01/30 12:12:18;;;;;;;7.65;1.17;;;8.50;99.90;;;;;;5043549;28;20036;-78
2021/01/30 12:14:43;;;;;;;4.65;0.93;;;8.50;99.90;;;;;;5038595;28;20033;-77
2021/01/30 12:17:33;;;;;;;4.35;1.10;;;8.50;99.90;;;;;;5043851;28;20038;-80
2021/01/30 12:19:58;;;;;;;5.65;0.95;;;8.40;99.90;;;;;;5041375;28;20049;-77
2021/01/30 12:22:24;;;;;;;3.13;1.10;;;8.50;99.90;;;;;;5042664;28;20033;-78
2021/01/30 12:24:49;;;;;;;5.47;1.27;;;8.40;99.90;;;;;;5041476;28;20127;-77
2021/01/30 12:27:16;;;;;;;10.07;1.50;;;8.50;99.90;;;;;;5040386;28;20029;-77
2021/01/30 12:29:44;;;;;;;6.20;1.10;;;8.50;99.90;;;;;;5044659;28;20021;-80
2021/01/30 12:32:13;;;;;;;6.10;1.30;;;8.40;99.90;;;;;;5040087;28;20049;-78
2021/01/30 12:34:43;;;;;;;4.65;1.42;;;8.40;99.90;;;;;;5049571;28;20024;-78
2021/01/30 12:37:08;;;;;;;5.32;1.05;;;8.30;99.90;;;;;;5038795;28;20033;-82
2021/01/30 12:39:34;;;;;;;7.85;1.40;;;8.30;99.90;;;;;;5048256;28;20040;-78
2021/01/30 12:41:59;;;;;;;5.95;1.42;;;8.30;99.90;;;;;;5049934;28;20029;-77
2021/01/30 12:44:26;;;;;;;4.97;1.55;;;8.30;99.90;;;;;;5049594;28;20674;-77
2021/01/30 12:46:53;;;;;;;7.88;1.83;;;8.30;99.90;;;;;;5028185;28;20455;-78
2021/01/30 12:49:20;;;;;;;7.45;1.75;;;8.30;99.90;;;;;;5056777;28;20021;-78
2021/01/30 12:51:46;;;;;;;4.95;1.20;;;8.40;99.90;;;;;;5040136;28;20036;-79
2021/01/30 12:54:15;;;;;;;5.57;1.33;;;8.40;99.90;;;;;;5051752;28;20379;-80
2021/01/30 12:56:41;;;;;;;5.53;1.58;;;8.30;99.90;;;;;;5041499;28;20064;-77
2021/01/30 12:59:07;;;;;;;5.55;1.15;;;8.30;99.90;;;;;;5048267;28;20495;-78
2021/01/30 13:01:33;;;;;;;5.13;1.00;;;8.30;99.90;;;;;;5048194;28;20028;-77
2021/01/30 13:03:59;;;;;;;4.78;1.25;;;8.10;99.90;;;;;;5047944;28;20025;-79
2021/01/30 13:06:24;;;;;;;6.45;1.20;;;8.10;99.90;;;;;;5048091;28;20514;-79
2021/01/30 13:08:51;;;;;;;3.72;0.93;;;8.10;99.90;;;;;;5039453;28;20445;-78
2021/01/30 13:11:17;;;;;;;5.40;1.15;;;8.00;99.90;;;;;;5026277;28;20077;-77
2021/01/30 13:13:44;;;;;;;7.05;1.00;;;7.90;99.90;;;;;;5045579;28;20535;-79
2021/01/30 13:16:10;;;;;;;3.97;0.82;;;7.90;99.90;;;;;;5047875;28;20040;-77
2021/01/30 13:18:35;;;;;;;2.35;0.70;;;7.80;99.90;;;;;;5044741;28;20021;-76
2021/01/30 13:21:03;;;;;;;3.03;1.33;;;7.80;99.90;;;;;;5029380;28;20079;-82
2021/01/30 13:23:33;;;;;;;5.13;1.00;;;7.80;99.90;;;;;;5047990;28;20040;-76
2021/01/30 13:25:58;;;;;;;3.15;1.00;;;7.80;99.90;;;;;;5047644;28;20063;-76
2021/01/30 13:28:24;;;;;;;2.13;0.60;;;7.70;99.90;;;;;;5047881;28;20393;-78